Time;durP1;ratioP1;P1;durP2;ratioP2;P2;SDS_P1;SDS_P2;PMS_P1;PMS_P2;Temp;Humidity;BMP_temperature;BMP_pressure;BME280_temperature;BME280_humidity;BME280_pressure;Samples;Min_cycle;Max_cycle;Signal;HPM_P1;HPM_P2
2021/06/04 00:01:24;;;;;;;3.42;2.80;;;;;;;;;;5118902;28;20229;-82
2021/06/04 00:03:52;;;;;;;3.80;3.40;;;;;;;;;;5118803;28;20243;-82
2021/06/04 00:06:20;;;;;;;2.42;2.30;;;;;;;;;;5118801;28;20730;-82
2021/06/04 00:08:49;;;;;;;2.33;2.13;;;;;;;;;;5118098;28;20618;-82
2021/06/04 00:11:24;;;;;;;3.05;2.75;;;;;;;;;;5118505;28;20200;-82
2021/06/04 00:13:53;;;;;;;2.13;2.03;;;;;;;;;;5118444;28;20704;-82
2021/06/04 00:16:26;;;;;;;2.10;2.00;;;;;;;;;;5118694;28;20657;-82
2021/06/04 00:18:54;;;;;;;1.95;1.85;;;;;;;;;;5118291;28;20696;-82
2021/06/04 00:21:26;;;;;;;2.53;2.33;;;;;;;;;;5118111;28;20664;-82
2021/06/04 00:23:53;;;;;;;2.22;2.10;;;;;;;;;;5118986;28;20290;-82
2021/06/04 00:26:21;;;;;;;2.45;2.20;;;;;;;;;;5118445;28;20657;-82
2021/06/04 00:28:48;;;;;;;2.92;2.67;;;;;;;;;;5117657;28;20219;-82
2021/06/04 00:31:16;;;;;;;4.10;3.22;;;;;;;;;;5119218;28;20199;-82
2021/06/04 00:33:44;;;;;;;2.58;2.45;;;;;;;;;;5118591;28;20209;-82
2021/06/04 00:36:12;;;;;;;2.80;2.60;;;;;;;;;;5118868;28;20235;-82
2021/06/04 00:38:39;;;;;;;2.17;2.08;;;;;;;;;;5118798;28;20687;-82
2021/06/04 00:41:18;;;;;;;2.38;2.25;;;;;;;;;;5118913;28;20660;-82
2021/06/04 00:43:46;;;;;;;3.17;2.15;;;;;;;;;;5118154;28;20211;-82
2021/06/04 00:46:13;;;;;;;2.33;2.22;;;;;;;;;;5119153;28;20248;-82
2021/06/04 00:48:40;;;;;;;2.70;2.50;;;;;;;;;;5118266;28;20258;-82
2021/06/04 00:51:16;;;;;;;2.40;2.20;;;;;;;;;;5117703;28;20204;-82
2021/06/04 00:53:43;;;;;;;2.92;2.38;;;;;;;;;;5118613;28;20203;-81
2021/06/04 00:56:12;;;;;;;2.80;2.60;;;;;;;;;;5118334;28;20210;-82
2021/06/04 00:58:44;;;;;;;2.75;2.55;;;;;;;;;;5118887;28;20200;-82
2021/06/04 01:01:13;;;;;;;2.28;2.15;;;;;;;;;;5118347;28;20214;-82
2021/06/04 01:03:46;;;;;;;2.25;2.05;;;;;;;;;;5118381;28;20227;-82
2021/06/04 01:06:25;;;;;;;2.28;2.10;;;;;;;;;;5118529;28;20662;-82
2021/06/04 01:09:26;;;;;;;2.08;1.98;;;;;;;;;;5118335;28;20691;-81
2021/06/04 01:12:11;;;;;;;2.15;2.00;;;;;;;;;;5094204;28;20660;-82
2021/06/04 01:14:46;;;;;;;2.15;2.05;;;;;;;;;;5118672;28;20230;-82
2021/06/04 01:17:20;;;;;;;1.98;1.88;;;;;;;;;;5118251;28;20626;-82
2021/06/04 01:19:51;;;;;;;2.17;2.08;;;;;;;;;;5118533;28;20687;-82
2021/06/04 01:22:34;;;;;;;1.98;1.88;;;;;;;;;;5118615;28;20555;-82
2021/06/04 01:25:36;;;;;;;2.10;2.00;;;;;;;;;;5118535;28;20594;-82
2021/06/04 01:28:12;;;;;;;2.00;1.90;;;;;;;;;;5106977;28;20230;-82
2021/06/04 01:30:44;;;;;;;2.15;2.05;;;;;;;;;;5118427;28;20198;-82
2021/06/04 01:33:16;;;;;;;2.00;1.90;;;;;;;;;;5118559;28;20204;-82
2021/06/04 01:35:46;;;;;;;2.10;2.00;;;;;;;;;;5118510;28;20223;-82
2021/06/04 01:38:15;;;;;;;2.00;1.90;;;;;;;;;;5118709;28;20279;-82
2021/06/04 01:40:47;;;;;;;2.03;1.92;;;;;;;;;;5120500;28;20200;-82
2021/06/04 01:43:20;;;;;;;2.20;2.10;;;;;;;;;;5122006;28;20658;-82
2021/06/04 01:45:53;;;;;;;1.95;1.85;;;;;;;;;;5122181;28;20220;-82
2021/06/04 01:48:24;;;;;;;2.17;1.98;;;;;;;;;;5122314;28;20689;-81
2021/06/04 01:50:57;;;;;;;2.15;1.98;;;;;;;;;;5122484;28;20204;-81
2021/06/04 01:53:30;;;;;;;2.58;2.38;;;;;;;;;;5122088;28;20204;-81
2021/06/04 01:56:01;;;;;;;2.53;2.38;;;;;;;;;;5122538;28;20204;-81
2021/06/04 01:58:36;;;;;;;2.25;2.10;;;;;;;;;;5122249;28;20330;-81
2021/06/04 02:01:09;;;;;;;2.22;2.13;;;;;;;;;;5122213;28;20199;-81
2021/06/04 02:03:38;;;;;;;2.15;2.03;;;;;;;;;;5121929;28;20713;-81
2021/06/04 02:06:06;;;;;;;3.28;2.90;;;;;;;;;;5122821;28;20265;-81
2021/06/04 02:08:48;;;;;;;2.20;2.05;;;;;;;;;;5122114;28;20246;-81
2021/06/04 02:11:25;;;;;;;3.63;2.58;;;;;;;;;;5122190;28;20223;-81
2021/06/04 02:13:54;;;;;;;2.75;2.55;;;;;;;;;;5121909;28;20219;-81
2021/06/04 02:16:45;;;;;;;2.70;2.50;;;;;;;;;;5117848;27;20200;-81
2021/06/04 02:19:23;;;;;;;3.38;3.17;;;;;;;;;;5116959;28;20625;-81
2021/06/04 02:21:55;;;;;;;4.05;3.20;;;;;;;;;;5117252;28;20256;-81
2021/06/04 02:24:30;;;;;;;3.58;3.28;;;;;;;;;;5116996;28;20227;-81
2021/06/04 02:27:03;;;;;;;3.75;2.97;;;;;;;;;;5116756;28;20196;-81
2021/06/04 02:29:35;;;;;;;3.75;3.45;;;;;;;;;;5116759;28;20708;-81
2021/06/04 02:32:09;;;;;;;2.67;2.50;;;;;;;;;;5116753;28;20215;-81
2021/06/04 02:34:43;;;;;;;3.42;3.13;;;;;;;;;;5117099;28;20224;-81
2021/06/04 02:37:14;;;;;;;3.33;3.03;;;;;;;;;;5116837;28;20576;-83
2021/06/04 02:39:45;;;;;;;3.50;2.88;;;;;;;;;;5116408;28;20195;-81
2021/06/04 02:42:17;;;;;;;4.93;3.20;;;;;;;;;;5117175;28;20204;-81
2021/06/04 02:44:50;;;;;;;3.28;3.08;;;;;;;;;;5116656;28;20215;-81
2021/06/04 02:47:21;;;;;;;3.00;2.70;;;;;;;;;;5116479;28;20204;-81
2021/06/04 02:49:48;;;;;;;2.90;2.70;;;;;;;;;;5116725;28;20223;-81
2021/06/04 02:52:32;;;;;;;2.70;2.50;;;;;;;;;;5116106;28;20200;-81
2021/06/04 02:55:01;;;;;;;3.13;2.92;;;;;;;;;;5116594;28;20226;-81
2021/06/04 02:57:32;;;;;;;3.72;3.38;;;;;;;;;;5116759;28;20202;-81
2021/06/04 03:00:00;;;;;;;3.80;2.72;;;;;;;;;;5115470;28;20553;-81
2021/06/04 03:02:33;;;;;;;3.22;3.03;;;;;;;;;;5115453;28;20581;-81
2021/06/04 03:05:05;;;;;;;3.10;2.80;;;;;;;;;;5116206;27;20227;-81
2021/06/04 03:07:37;;;;;;;3.33;3.13;;;;;;;;;;5116836;28;20220;-81
2021/06/04 03:10:12;;;;;;;2.95;2.75;;;;;;;;;;5116272;28;20230;-81
2021/06/04 03:12:44;;;;;;;3.25;3.05;;;;;;;;;;5116130;28;20195;-81
2021/06/04 03:15:20;;;;;;;2.72;2.53;;;;;;;;;;5116700;28;20214;-81
2021/06/04 03:17:47;;;;;;;3.70;3.47;;;;;;;;;;5116422;28;20203;-81
2021/06/04 03:20:20;;;;;;;3.42;3.13;;;;;;;;;;5116255;28;20245;-81
2021/06/04 03:22:47;;;;;;;3.00;2.80;;;;;;;;;;5116081;28;20208;-81
2021/06/04 03:25:20;;;;;;;3.38;3.17;;;;;;;;;;5115884;28;20220;-81
2021/06/04 03:27:47;;;;;;;3.20;3.00;;;;;;;;;;5115907;28;20203;-81
2021/06/04 03:30:18;;;;;;;3.95;3.00;;;;;;;;;;5116159;28;20202;-81
2021/06/04 03:32:46;;;;;;;3.38;3.13;;;;;;;;;;5116413;28;20199;-81
2021/06/04 03:35:15;;;;;;;4.05;3.67;;;;;;;;;;5116247;28;20279;-81
2021/06/04 03:37:43;;;;;;;3.67;3.38;;;;;;;;;;5116417;27;20191;-82
2021/06/04 03:40:15;;;;;;;3.13;2.92;;;;;;;;;;5116148;28;20199;-81
2021/06/04 03:42:43;;;;;;;4.10;3.10;;;;;;;;;;5116092;28;20622;-81
2021/06/04 03:45:16;;;;;;;3.88;3.47;;;;;;;;;;5115773;28;20715;-81
2021/06/04 03:47:43;;;;;;;3.88;2.83;;;;;;;;;;5116345;28;20264;-81
2021/06/04 03:50:12;;;;;;;2.67;2.53;;;;;;;;;;5115656;28;20273;-82
2021/06/04 03:52:39;;;;;;;2.92;2.72;;;;;;;;;;5116168;28;20606;-81
2021/06/04 03:55:09;;;;;;;3.75;3.13;;;;;;;;;;5115900;28;20224;-81
2021/06/04 03:57:38;;;;;;;2.67;2.47;;;;;;;;;;5115822;28;20672;-81
2021/06/04 04:00:13;;;;;;;3.13;2.67;;;;;;;;;;5116065;28;20698;-81
2021/06/04 04:02:42;;;;;;;3.25;3.05;;;;;;;;;;5115118;28;20231;-81
2021/06/04 04:05:11;;;;;;;3.50;3.25;;;;;;;;;;5116210;28;20211;-81
2021/06/04 04:07:38;;;;;;;3.33;3.13;;;;;;;;;;5116054;28;20188;-81
2021/06/04 04:10:07;;;;;;;3.35;3.15;;;;;;;;;;5115712;28;20226;-82
2021/06/04 04:12:34;;;;;;;3.60;3.38;;;;;;;;;;5115784;28;20203;-81
2021/06/04 04:15:01;;;;;;;3.38;3.17;;;;;;;;;;5115600;28;20271;-81
2021/06/04 04:17:29;;;;;;;4.20;3.92;;;;;;;;;;5116011;28;20624;-82
2021/06/04 04:19:57;;;;;;;3.33;3.13;;;;;;;;;;5115998;28;20195;-81
2021/06/04 04:22:25;;;;;;;3.20;3.00;;;;;;;;;;5115559;28;20213;-81
2021/06/04 04:24:52;;;;;;;3.92;3.72;;;;;;;;;;5116134;28;20588;-81
2021/06/04 04:27:19;;;;;;;3.50;3.30;;;;;;;;;;5116181;28;20203;-81
2021/06/04 04:29:46;;;;;;;3.15;2.95;;;;;;;;;;5115341;28;20645;-81
2021/06/04 04:32:16;;;;;;;3.97;3.58;;;;;;;;;;5116170;28;20249;-82
2021/06/04 04:34:45;;;;;;;3.88;3.40;;;;;;;;;;5116165;28;20513;-81
2021/06/04 04:37:14;;;;;;;3.25;3.05;;;;;;;;;;5118883;28;20677;-81
2021/06/04 04:39:45;;;;;;;3.45;3.15;;;;;;;;;;5115550;28;20195;-81
2021/06/04 04:42:15;;;;;;;3.95;3.65;;;;;;;;;;5116353;28;20674;-81
2021/06/04 04:44:45;;;;;;;4.03;3.63;;;;;;;;;;5115909;28;20227;-81
2021/06/04 04:47:15;;;;;;;5.10;4.60;;;;;;;;;;5115579;28;20707;-82
2021/06/04 04:49:43;;;;;;;5.15;4.75;;;;;;;;;;5115922;28;20224;-82
2021/06/04 04:52:11;;;;;;;4.32;4.03;;;;;;;;;;5115738;28;20203;-81
2021/06/04 04:54:41;;;;;;;5.35;4.95;;;;;;;;;;5116037;28;20235;-81
2021/06/04 04:57:09;;;;;;;6.47;4.40;;;;;;;;;;5115444;28;20211;-83
2021/06/04 04:59:37;;;;;;;4.10;3.80;;;;;;;;;;5116187;28;20206;-84
2021/06/04 05:02:05;;;;;;;4.43;4.13;;;;;;;;;;5115324;28;20203;-84
2021/06/04 05:04:32;;;;;;;4.60;4.30;;;;;;;;;;5115183;28;20223;-83
2021/06/04 05:06:59;;;;;;;4.53;4.13;;;;;;;;;;5115270;28;20196;-84
2021/06/04 05:09:26;;;;;;;4.95;4.57;;;;;;;;;;5115257;28;20276;-84
2021/06/04 05:11:54;;;;;;;5.35;4.95;;;;;;;;;;5116290;28;20261;-83
2021/06/04 05:14:21;;;;;;;5.88;4.95;;;;;;;;;;5116968;28;20216;-83
2021/06/04 05:16:48;;;;;;;4.47;4.03;;;;;;;;;;5119598;28;20222;-84
2021/06/04 05:19:15;;;;;;;5.65;5.15;;;;;;;;;;5119908;28;20200;-84
2021/06/04 05:21:42;;;;;;;4.82;4.53;;;;;;;;;;5119408;28;20200;-81
2021/06/04 05:24:10;;;;;;;5.32;4.97;;;;;;;;;;5118647;28;20222;-82
2021/06/04 05:26:37;;;;;;;5.30;4.90;;;;;;;;;;5119755;28;20234;-82
2021/06/04 05:29:06;;;;;;;5.75;5.25;;;;;;;;;;5119366;28;20219;-82
2021/06/04 05:31:34;;;;;;;4.20;3.78;;;;;;;;;;5118403;28;20203;-82
2021/06/04 05:34:01;;;;;;;5.47;5.07;;;;;;;;;;5118353;28;20732;-82
2021/06/04 05:36:32;;;;;;;5.30;4.90;;;;;;;;;;5118277;28;20196;-82
2021/06/04 05:39:00;;;;;;;4.93;4.50;;;;;;;;;;5117825;28;20684;-81
2021/06/04 05:41:28;;;;;;;6.70;6.10;;;;;;;;;;5119023;28;20694;-82
2021/06/04 05:43:54;;;;;;;7.13;6.53;;;;;;;;;;5118478;28;20651;-82
2021/06/04 05:46:23;;;;;;;6.40;5.90;;;;;;;;;;5117813;28;20290;-82
2021/06/04 05:48:50;;;;;;;6.80;6.30;;;;;;;;;;5118169;28;20290;-82
2021/06/04 05:51:20;;;;;;;6.38;5.80;;;;;;;;;;5117559;28;20294;-82
2021/06/04 05:53:48;;;;;;;5.15;4.75;;;;;;;;;;5118266;28;20200;-82
2021/06/04 05:56:18;;;;;;;6.88;6.38;;;;;;;;;;5118377;28;20204;-82
2021/06/04 05:58:45;;;;;;;7.07;6.57;;;;;;;;;;5118496;28;20195;-82
2021/06/04 06:01:16;;;;;;;6.82;6.22;;;;;;;;;;5118707;28;20199;-82
2021/06/04 06:03:45;;;;;;;6.93;6.32;;;;;;;;;;5117647;28;20223;-82
2021/06/04 06:06:13;;;;;;;7.22;6.63;;;;;;;;;;5118087;28;20199;-82
2021/06/04 06:08:41;;;;;;;6.82;6.22;;;;;;;;;;5119089;28;20203;-82
2021/06/04 06:11:10;;;;;;;6.53;6.00;;;;;;;;;;5117770;28;20869;-82
2021/06/04 06:13:37;;;;;;;7.40;6.80;;;;;;;;;;5117631;28;20698;-82
2021/06/04 06:16:05;;;;;;;7.30;6.60;;;;;;;;;;5117280;28;20264;-82
2021/06/04 06:18:32;;;;;;;6.68;6.07;;;;;;;;;;5118200;28;20264;-82
2021/06/04 06:21:01;;;;;;;7.03;6.32;;;;;;;;;;5117555;28;20256;-82
2021/06/04 06:23:31;;;;;;;6.25;5.75;;;;;;;;;;5118227;28;20229;-82
2021/06/04 06:26:03;;;;;;;6.72;6.13;;;;;;;;;;5116713;28;20240;-82
2021/06/04 06:28:33;;;;;;;7.38;6.40;;;;;;;;;;5117502;28;20203;-83
2021/06/04 06:31:03;;;;;;;7.85;7.15;;;;;;;;;;5117384;28;20288;-82
2021/06/04 06:33:31;;;;;;;7.40;6.80;;;;;;;;;;5117231;28;20199;-82
2021/06/04 06:36:03;;;;;;;6.20;5.70;;;;;;;;;;5116976;28;20202;-82
2021/06/04 06:38:31;;;;;;;7.00;6.43;;;;;;;;;;5116987;28;20195;-82
2021/06/04 06:41:00;;;;;;;6.05;5.65;;;;;;;;;;5116107;28;20196;-82
2021/06/04 06:43:30;;;;;;;7.40;6.80;;;;;;;;;;5116245;28;20203;-82
2021/06/04 06:45:57;;;;;;;6.13;5.63;;;;;;;;;;5116213;28;20200;-82
2021/06/04 06:48:25;;;;;;;6.63;6.03;;;;;;;;;;5116725;28;20199;-82
2021/06/04 06:50:54;;;;;;;8.27;6.57;;;;;;;;;;5116157;28;20227;-82
2021/06/04 06:53:24;;;;;;;6.50;5.90;;;;;;;;;;5117039;28;20200;-82
2021/06/04 06:55:53;;;;;;;6.38;5.88;;;;;;;;;;5116848;28;20296;-82
2021/06/04 06:58:23;;;;;;;5.82;5.35;;;;;;;;;;5117602;28;20207;-82
2021/06/04 07:00:52;;;;;;;6.30;5.80;;;;;;;;;;5116772;28;20192;-82
2021/06/04 07:03:26;;;;;;;6.63;6.05;;;;;;;;;;5117352;28;20258;-84
2021/06/04 07:05:54;;;;;;;7.72;7.13;;;;;;;;;;5116634;28;20219;-83
2021/06/04 07:08:22;;;;;;;6.53;5.95;;;;;;;;;;5116540;28;20656;-82
2021/06/04 07:10:50;;;;;;;6.55;6.05;;;;;;;;;;5116305;28;20221;-82
2021/06/04 07:13:25;;;;;;;7.25;6.68;;;;;;;;;;5116197;28;20695;-82
2021/06/04 07:15:53;;;;;;;7.00;6.35;;;;;;;;;;5116122;28;20690;-83
2021/06/04 07:18:21;;;;;;;6.13;5.63;;;;;;;;;;5115960;28;20202;-82
2021/06/04 07:20:48;;;;;;;6.85;6.30;;;;;;;;;;5115989;28;20199;-82
2021/06/04 07:23:16;;;;;;;7.20;6.60;;;;;;;;;;5115803;28;20206;-83
2021/06/04 07:25:46;;;;;;;6.43;5.88;;;;;;;;;;5115901;28;20322;-82
2021/06/04 07:28:16;;;;;;;7.40;6.80;;;;;;;;;;5116250;28;20249;-82
2021/06/04 07:30:46;;;;;;;5.95;5.38;;;;;;;;;;5115755;28;20223;-82
2021/06/04 07:33:17;;;;;;;6.80;6.28;;;;;;;;;;5116112;28;20278;-82
2021/06/04 07:35:44;;;;;;;6.40;5.90;;;;;;;;;;5115878;28;20220;-83
2021/06/04 07:38:11;;;;;;;7.43;6.32;;;;;;;;;;5116534;28;20203;-83
2021/06/04 07:40:39;;;;;;;5.97;5.50;;;;;;;;;;5115929;28;20192;-82
2021/06/04 07:43:10;;;;;;;7.75;7.05;;;;;;;;;;5116107;28;20191;-83
2021/06/04 07:45:40;;;;;;;6.38;5.88;;;;;;;;;;5115911;28;20723;-82
2021/06/04 07:48:13;;;;;;;5.60;5.20;;;;;;;;;;5116620;28;20214;-82
2021/06/04 07:50:41;;;;;;;5.50;5.10;;;;;;;;;;5117204;28;20592;-83
2021/06/04 07:53:09;;;;;;;6.15;5.65;;;;;;;;;;5117115;28;20245;-82
2021/06/04 07:55:36;;;;;;;7.20;6.60;;;;;;;;;;5116157;28;20310;-82
2021/06/04 07:58:03;;;;;;;6.03;5.63;;;;;;;;;;5116817;28;20289;-82
2021/06/04 08:00:33;;;;;;;6.63;6.13;;;;;;;;;;5116505;28;20305;-84
2021/06/04 08:03:05;;;;;;;5.93;5.43;;;;;;;;;;5115712;28;20230;-84
2021/06/04 08:05:35;;;;;;;6.15;5.75;;;;;;;;;;5117847;28;20229;-85
2021/06/04 08:08:03;;;;;;;7.00;6.40;;;;;;;;;;5125688;28;20238;-84
2021/06/04 08:10:31;;;;;;;5.93;5.53;;;;;;;;;;5127609;28;20222;-83
2021/06/04 08:12:59;;;;;;;6.68;6.18;;;;;;;;;;5128705;28;20195;-84
2021/06/04 08:15:30;;;;;;;5.95;5.45;;;;;;;;;;5132333;28;20208;-85
2021/06/04 08:17:59;;;;;;;5.53;5.13;;;;;;;;;;5134485;28;20199;-85
2021/06/04 08:20:29;;;;;;;6.13;4.63;;;;;;;;;;5133767;28;20226;-85
2021/06/04 08:23:02;;;;;;;5.63;5.10;;;;;;;;;;5133885;28;20184;-85
2021/06/04 08:25:32;;;;;;;5.53;5.05;;;;;;;;;;5133977;28;20872;-86
2021/06/04 08:27:59;;;;;;;5.90;5.40;;;;;;;;;;5132454;28;20219;-85
2021/06/04 08:30:27;;;;;;;6.22;5.65;;;;;;;;;;5129239;28;20230;-85
2021/06/04 08:32:54;;;;;;;5.68;5.18;;;;;;;;;;5132481;28;20255;-86
2021/06/04 08:35:24;;;;;;;5.55;5.15;;;;;;;;;;5133278;28;20229;-86
2021/06/04 08:37:51;;;;;;;5.57;5.18;;;;;;;;;;5133200;28;20183;-85
2021/06/04 08:40:23;;;;;;;5.32;4.93;;;;;;;;;;5135886;28;20184;-86
2021/06/04 08:43:07;;;;;;;6.18;5.68;;;;;;;;;;5134804;28;20206;-86
2021/06/04 08:45:38;;;;;;;4.72;4.32;;;;;;;;;;5134086;28;20224;-86
2021/06/04 08:48:24;;;;;;;13.52;5.35;;;;;;;;;;5132759;28;20199;-85
2021/06/04 08:51:03;;;;;;;5.45;5.05;;;;;;;;;;5135918;28;20223;-85
2021/06/04 08:53:36;;;;;;;5.88;5.43;;;;;;;;;;5137484;28;20560;-85
2021/06/04 08:56:08;;;;;;;6.13;5.60;;;;;;;;;;5139171;28;20198;-86
2021/06/04 08:58:50;;;;;;;5.88;5.35;;;;;;;;;;5138647;28;20239;-85
2021/06/04 09:01:22;;;;;;;5.85;5.05;;;;;;;;;;5136917;28;20203;-86
2021/06/04 09:03:54;;;;;;;5.38;4.93;;;;;;;;;;5132621;28;20368;-85
2021/06/04 09:06:31;;;;;;;5.05;4.68;;;;;;;;;;5116903;28;20619;-85
2021/06/04 09:09:06;;;;;;;6.82;4.82;;;;;;;;;;5116306;28;20358;-85
2021/06/04 09:11:37;;;;;;;5.68;5.05;;;;;;;;;;5116438;28;20223;-85
2021/06/04 09:14:06;;;;;;;4.45;4.13;;;;;;;;;;5116724;28;20220;-85
2021/06/04 09:16:42;;;;;;;5.03;4.57;;;;;;;;;;5116493;28;20295;-85
2021/06/04 09:19:15;;;;;;;5.00;4.70;;;;;;;;;;5116334;28;20179;-85
2021/06/04 09:21:45;;;;;;;4.82;4.35;;;;;;;;;;5116062;28;20641;-85
2021/06/04 09:24:18;;;;;;;5.28;4.80;;;;;;;;;;5116044;28;20285;-85
2021/06/04 09:26:45;;;;;;;5.75;5.15;;;;;;;;;;5116126;28;20184;-85
2021/06/04 09:29:22;;;;;;;5.63;5.15;;;;;;;;;;5116339;28;20196;-84
2021/06/04 09:31:52;;;;;;;5.80;5.40;;;;;;;;;;5116183;28;20226;-85
2021/06/04 09:34:31;;;;;;;6.57;5.88;;;;;;;;;;5116413;28;20219;-84
2021/06/04 09:37:02;;;;;;;6.00;5.50;;;;;;;;;;5116346;28;20673;-84
2021/06/04 09:39:36;;;;;;;5.72;4.93;;;;;;;;;;5115600;28;20200;-84
2021/06/04 09:42:19;;;;;;;5.80;5.30;;;;;;;;;;5116015;28;20199;-84
2021/06/04 09:44:55;;;;;;;5.40;4.90;;;;;;;;;;5116097;28;20287;-85
2021/06/04 09:47:35;;;;;;;4.47;4.18;;;;;;;;;;5115975;28;20211;-84
2021/06/04 09:50:18;;;;;;;5.53;5.03;;;;;;;;;;5115836;28;20218;-84
2021/06/04 09:52:48;;;;;;;5.72;5.32;;;;;;;;;;5115378;28;20198;-84
2021/06/04 09:55:27;;;;;;;5.00;4.70;;;;;;;;;;5115742;28;20227;-83
2021/06/04 09:58:08;;;;;;;4.25;3.92;;;;;;;;;;5115565;28;20218;-84
2021/06/04 10:00:40;;;;;;;4.97;4.50;;;;;;;;;;5114360;28;20290;-84
2021/06/04 10:03:27;;;;;;;4.90;4.47;;;;;;;;;;5115365;28;20223;-83
2021/06/04 10:06:11;;;;;;;5.07;4.57;;;;;;;;;;5115274;28;20280;-84
2021/06/04 10:08:44;;;;;;;4.28;3.88;;;;;;;;;;5115214;28;20200;-84
2021/06/04 10:11:16;;;;;;;5.90;5.00;;;;;;;;;;5115259;28;20219;-83
2021/06/04 10:13:50;;;;;;;5.00;4.60;;;;;;;;;;5115161;28;20206;-83
2021/06/04 10:17:01;;;;;;;4.60;4.30;;;;;;;;;;5115254;28;20744;-84
2021/06/04 10:19:37;;;;;;;4.72;4.35;;;;;;;;;;5114838;28;20252;-83
2021/06/04 10:22:24;;;;;;;4.93;4.53;;;;;;;;;;5114588;28;20286;-83
2021/06/04 10:25:14;;;;;;;4.05;3.83;;;;;;;;;;5114786;28;20220;-84
2021/06/04 10:27:44;;;;;;;5.72;5.30;;;;;;;;;;5114776;28;20673;-84
2021/06/04 10:30:16;;;;;;;5.55;5.10;;;;;;;;;;5114688;28;20199;-84
2021/06/04 10:32:53;;;;;;;5.72;5.22;;;;;;;;;;5114970;28;20222;-84
2021/06/04 10:35:25;;;;;;;5.20;4.80;;;;;;;;;;5114929;28;20223;-84
2021/06/04 10:37:59;;;;;;;5.45;5.00;;;;;;;;;;5114771;28;20725;-84
2021/06/04 10:40:34;;;;;;;4.57;4.28;;;;;;;;;;5115058;28;20586;-83
2021/06/04 10:43:31;;;;;;;4.93;4.53;;;;;;;;;;5114686;28;20253;-83
2021/06/04 10:46:09;;;;;;;5.07;4.68;;;;;;;;;;5114680;28;20207;-84
2021/06/04 10:49:03;;;;;;;5.70;5.22;;;;;;;;;;5114511;28;20691;-84
2021/06/04 10:51:38;;;;;;;5.63;5.07;;;;;;;;;;5111230;28;20224;-84
2021/06/04 10:54:19;;;;;;;5.32;4.93;;;;;;;;;;5114680;28;20243;-84
2021/06/04 10:56:56;;;;;;;5.75;5.30;;;;;;;;;;5114100;28;20206;-84
2021/06/04 10:59:36;;;;;;;5.40;4.90;;;;;;;;;;5114032;28;20211;-84
2021/06/04 11:02:12;;;;;;;5.18;4.78;;;;;;;;;;5114020;28;20203;-84
2021/06/04 11:04:51;;;;;;;5.15;4.72;;;;;;;;;;5114280;28;20226;-85
2021/06/04 11:07:25;;;;;;;4.90;4.47;;;;;;;;;;5114464;28;20199;-84
2021/06/04 11:09:59;;;;;;;5.63;5.03;;;;;;;;;;5114160;28;20203;-84
2021/06/04 11:12:45;;;;;;;5.38;4.82;;;;;;;;;;5114090;28;20229;-84
2021/06/04 11:15:16;;;;;;;5.10;4.60;;;;;;;;;;5114294;28;20226;-85
2021/06/04 11:17:48;;;;;;;4.30;4.00;;;;;;;;;;5114366;28;20203;-84
2021/06/04 11:20:20;;;;;;;6.13;5.47;;;;;;;;;;5113800;28;20199;-84
2021/06/04 11:23:03;;;;;;;4.63;4.32;;;;;;;;;;5113925;28;20196;-84
2021/06/04 11:25:52;;;;;;;5.82;5.38;;;;;;;;;;5113489;28;20219;-84
2021/06/04 11:28:37;;;;;;;9.13;5.22;;;;;;;;;;5113563;28;20657;-83
2021/06/04 11:31:08;;;;;;;5.25;4.93;;;;;;;;;;5114002;28;20196;-84
2021/06/04 11:33:40;;;;;;;5.50;4.68;;;;;;;;;;5113705;28;20291;-84
2021/06/04 11:36:13;;;;;;;5.88;5.47;;;;;;;;;;5113351;28;20195;-84
2021/06/04 11:38:43;;;;;;;5.97;5.47;;;;;;;;;;5113786;28;20200;-83
2021/06/04 11:41:14;;;;;;;5.90;5.50;;;;;;;;;;5114083;28;20200;-83
2021/06/04 11:43:45;;;;;;;6.57;5.70;;;;;;;;;;5113219;28;20196;-84
2021/06/04 11:46:21;;;;;;;6.13;5.72;;;;;;;;;;5113611;28;20589;-84
2021/06/04 11:49:10;;;;;;;5.38;4.88;;;;;;;;;;5113443;28;20229;-83
2021/06/04 11:51:47;;;;;;;7.65;7.05;;;;;;;;;;5113659;28;20219;-85
2021/06/04 11:54:39;;;;;;;5.85;5.45;;;;;;;;;;5113518;28;20723;-84
2021/06/04 11:57:11;;;;;;;7.40;6.78;;;;;;;;;;5113287;28;20767;-83
2021/06/04 12:00:06;;;;;;;6.45;5.93;;;;;;;;;;5113048;28;20200;-83
2021/06/04 12:02:40;;;;;;;6.25;5.10;;;;;;;;;;5113042;28;20215;-83
2021/06/04 12:05:30;;;;;;;5.47;4.97;;;;;;;;;;5112895;28;20223;-84
2021/06/04 12:08:33;;;;;;;5.95;5.40;;;;;;;;;;5113135;28;20260;-84
2021/06/04 12:11:34;;;;;;;4.63;4.20;;;;;;;;;;5112930;28;20199;-83
2021/06/04 12:14:18;;;;;;;5.57;4.30;;;;;;;;;;5112763;28;20219;-83
2021/06/04 12:17:13;;;;;;;8.13;4.70;;;;;;;;;;5112873;28;20223;-84
2021/06/04 12:19:40;;;;;;;4.82;4.20;;;;;;;;;;5077282;28;20196;-83
2021/06/04 12:22:27;;;;;;;4.85;4.45;;;;;;;;;;5113328;28;20195;-84
2021/06/04 12:24:57;;;;;;;4.38;3.97;;;;;;;;;;5111383;28;20223;-84
2021/06/04 12:27:57;;;;;;;4.28;3.97;;;;;;;;;;5112508;28;20548;-84
2021/06/04 12:30:59;;;;;;;4.63;4.15;;;;;;;;;;5107932;28;20257;-84
2021/06/04 12:34:00;;;;;;;5.32;4.80;;;;;;;;;;5112299;28;20577;-84
2021/06/04 12:37:06;;;;;;;5.68;5.03;;;;;;;;;;5112871;28;20202;-84
2021/06/04 12:40:16;;;;;;;5.75;5.22;;;;;;;;;;5112804;28;20206;-84
2021/06/04 12:42:48;;;;;;;7.68;5.65;;;;;;;;;;5113471;28;20199;-84
2021/06/04 12:45:31;;;;;;;5.80;5.30;;;;;;;;;;5114204;28;20213;-86
2021/06/04 12:48:11;;;;;;;9.88;5.63;;;;;;;;;;5113701;28;20199;-86
2021/06/04 12:50:42;;;;;;;6.32;5.72;;;;;;;;;;5115336;28;20202;-85
2021/06/04 12:53:21;;;;;;;5.68;5.22;;;;;;;;;;5115048;28;20715;-85
2021/06/04 12:55:51;;;;;;;6.75;6.07;;;;;;;;;;5113953;28;20215;-85
2021/06/04 12:58:26;;;;;;;6.10;5.60;;;;;;;;;;5114108;28;20199;-85
2021/06/04 13:01:05;;;;;;;7.55;6.05;;;;;;;;;;5113237;28;20209;-85
2021/06/04 13:03:35;;;;;;;6.50;6.00;;;;;;;;;;5114630;28;20235;-86
2021/06/04 13:06:11;;;;;;;6.82;6.32;;;;;;;;;;5113790;28;20215;-85
2021/06/04 13:08:45;;;;;;;9.75;7.25;;;;;;;;;;5112946;28;20271;-84
2021/06/04 13:11:12;;;;;;;9.52;6.20;;;;;;;;;;5113408;28;20199;-86
2021/06/04 13:13:43;;;;;;;7.03;6.32;;;;;;;;;;5113272;28;20220;-85
2021/06/04 13:16:20;;;;;;;6.28;5.78;;;;;;;;;;5113580;28;20546;-85
2021/06/04 13:18:50;;;;;;;7.45;6.65;;;;;;;;;;5113020;28;20202;-85
2021/06/04 13:21:22;;;;;;;6.15;5.70;;;;;;;;;;5112823;28;20204;-85
2021/06/04 13:24:03;;;;;;;7.43;6.82;;;;;;;;;;5112452;28;20195;-85
2021/06/04 13:26:36;;;;;;;6.63;6.18;;;;;;;;;;5113111;28;20207;-86
2021/06/04 13:29:07;;;;;;;7.25;6.65;;;;;;;;;;5112846;28;20238;-85
2021/06/04 13:31:38;;;;;;;8.77;7.90;;;;;;;;;;5113330;28;20272;-85
2021/06/04 13:34:13;;;;;;;10.27;9.27;;;;;;;;;;5112670;28;20231;-85
2021/06/04 13:36:42;;;;;;;8.15;7.47;;;;;;;;;;5116335;28;20285;-85
2021/06/04 13:39:12;;;;;;;8.38;7.53;;;;;;;;;;5116489;28;20657;-85
2021/06/04 13:41:45;;;;;;;9.05;8.32;;;;;;;;;;5117059;28;20200;-85
2021/06/04 13:44:16;;;;;;;7.97;7.35;;;;;;;;;;5116775;28;20224;-85
2021/06/04 13:46:53;;;;;;;8.50;7.80;;;;;;;;;;5117012;28;20604;-86
2021/06/04 13:49:34;;;;;;;8.68;7.97;;;;;;;;;;5116572;28;20196;-85
2021/06/04 13:52:08;;;;;;;7.97;7.35;;;;;;;;;;5115998;28;20217;-85
2021/06/04 13:54:50;;;;;;;8.18;7.57;;;;;;;;;;5116142;28;20219;-85
2021/06/04 13:57:22;;;;;;;8.35;7.55;;;;;;;;;;5116621;28;20217;-85
2021/06/04 13:59:50;;;;;;;8.48;7.72;;;;;;;;;;5116217;28;20210;-85
2021/06/04 14:02:30;;;;;;;7.97;7.32;;;;;;;;;;5115886;28;20582;-84
2021/06/04 14:05:00;;;;;;;7.90;7.32;;;;;;;;;;5116497;28;20305;-84
2021/06/04 14:07:39;;;;;;;8.73;8.02;;;;;;;;;;5116022;27;20222;-85
2021/06/04 14:10:39;;;;;;;9.40;8.70;;;;;;;;;;5116146;28;20210;-85
2021/06/04 14:13:12;;;;;;;8.40;7.70;;;;;;;;;;5115896;28;20215;-85
2021/06/04 14:15:48;;;;;;;8.10;7.53;;;;;;;;;;5116211;28;20230;-85
2021/06/04 14:18:34;;;;;;;9.15;8.35;;;;;;;;;;5115393;28;20209;-85
2021/06/04 14:21:27;;;;;;;9.20;7.30;;;;;;;;;;5115460;28;20199;-84
2021/06/04 14:24:03;;;;;;;8.10;7.32;;;;;;;;;;5115033;28;20222;-85
2021/06/04 14:26:48;;;;;;;7.45;6.95;;;;;;;;;;5115139;28;20199;-85
2021/06/04 14:29:22;;;;;;;7.22;6.63;;;;;;;;;;5115202;28;20614;-84
2021/06/04 14:31:54;;;;;;;7.50;6.90;;;;;;;;;;5114843;28;20253;-84
2021/06/04 14:34:26;;;;;;;7.30;6.70;;;;;;;;;;5114464;28;20228;-84
2021/06/04 14:36:54;;;;;;;7.65;7.05;;;;;;;;;;5114856;28;20200;-84
2021/06/04 14:39:37;;;;;;;7.85;7.25;;;;;;;;;;5114656;28;20689;-85
2021/06/04 14:42:09;;;;;;;8.63;7.95;;;;;;;;;;5114326;28;20567;-85
2021/06/04 14:44:36;;;;;;;8.05;7.35;;;;;;;;;;5114487;28;20212;-85
2021/06/04 14:47:21;;;;;;;7.80;7.20;;;;;;;;;;5113907;28;20210;-85
2021/06/04 14:49:51;;;;;;;8.23;7.63;;;;;;;;;;5114395;28;20689;-85
2021/06/04 14:52:18;;;;;;;8.43;7.82;;;;;;;;;;5114497;28;20220;-85
2021/06/04 14:54:48;;;;;;;9.40;8.52;;;;;;;;;;5114611;28;20578;-85
2021/06/04 14:57:15;;;;;;;8.63;8.02;;;;;;;;;;5114359;28;20561;-84
2021/06/04 14:59:42;;;;;;;9.35;8.65;;;;;;;;;;5114445;28;20670;-85
2021/06/04 15:02:14;;;;;;;8.55;7.85;;;;;;;;;;5113986;28;20214;-85
2021/06/04 15:04:41;;;;;;;9.23;8.52;;;;;;;;;;5114298;28;20238;-85
2021/06/04 15:07:08;;;;;;;9.60;8.80;;;;;;;;;;5113974;28;20573;-85
2021/06/04 15:09:35;;;;;;;7.75;7.13;;;;;;;;;;5113906;28;20652;-85
2021/06/04 15:12:04;;;;;;;8.85;8.05;;;;;;;;;;5113859;28;20678;-85
2021/06/04 15:14:31;;;;;;;9.02;8.23;;;;;;;;;;5114051;28;20223;-85
2021/06/04 15:17:00;;;;;;;8.65;7.97;;;;;;;;;;5114053;28;20191;-85
2021/06/04 15:19:27;;;;;;;9.05;8.35;;;;;;;;;;5113988;28;20203;-85